createdAt,value
2022-11-25T00:01:32.934Z,194.10
2022-11-25T00:04:01.459Z,189.60
2022-11-25T00:06:34.875Z,154.10
2022-11-25T00:09:07.623Z,159.50
2022-11-25T00:11:36.860Z,180.90
2022-11-25T00:14:05.667Z,204.50
2022-11-25T00:16:33.534Z,169.20
2022-11-25T00:19:01.425Z,140.30
2022-11-25T00:21:32.696Z,147.20
2022-11-25T00:24:03.911Z,172.10
2022-11-25T00:26:33.939Z,176.90
2022-11-25T00:29:07.514Z,139.40
2022-11-25T00:31:39.471Z,170.20
2022-11-25T00:34:07.918Z,155.20
2022-11-25T00:36:37.738Z,155.90
2022-11-25T00:39:17.188Z,121.10
2022-11-25T00:42:04.483Z,147.60
2022-11-25T00:44:40.711Z,159.00
2022-11-25T00:47:14.646Z,168.50
2022-11-25T00:49:54.769Z,143.90
2022-11-25T00:52:25.278Z,124.20
2022-11-25T00:54:54.878Z,127.70
2022-11-25T00:57:24.080Z,120.00
2022-11-25T00:59:52.236Z,130.50
2022-11-25T01:02:26.454Z,136.40
2022-11-25T01:04:55.989Z,122.10
2022-11-25T01:07:23.998Z,124.50
2022-11-25T01:09:51.900Z,138.50
2022-11-25T01:12:19.914Z,110.10
2022-11-25T01:14:47.633Z,123.10
2022-11-25T01:17:15.863Z,115.70
2022-11-25T01:19:43.577Z,122.00
2022-11-25T01:22:11.497Z,103.90
2022-11-25T01:24:39.304Z,108.20
2022-11-25T01:27:07.153Z,110.00
2022-11-25T01:29:35.034Z,111.50
2022-11-25T01:32:02.925Z,103.70
2022-11-25T01:34:32.547Z,96.50
2022-11-25T01:37:00.523Z,106.00
2022-11-25T01:39:32.564Z,106.70
2022-11-25T01:42:02.058Z,102.20
2022-11-25T01:44:32.224Z,97.50
2022-11-25T01:47:14.685Z,105.20
2022-11-25T01:49:56.738Z,106.10
2022-11-25T01:52:33.125Z,105.40
2022-11-25T01:55:09.964Z,96.00
2022-11-25T01:57:43.942Z,107.10
2022-11-25T02:00:12.889Z,119.00
2022-11-25T02:02:49.587Z,113.70
2022-11-25T02:05:21.622Z,101.70
2022-11-25T02:07:53.139Z,102.00
2022-11-25T02:10:31.262Z,92.80
2022-11-25T02:12:59.679Z,107.20
2022-11-25T02:15:29.602Z,105.00
2022-11-25T02:17:57.613Z,98.00
2022-11-25T02:20:25.736Z,88.70
2022-11-25T02:23:16.984Z,102.10
2022-11-25T02:25:46.981Z,104.30
2022-11-25T02:28:29.560Z,91.80
2022-11-25T02:30:58.351Z,93.90
2022-11-25T02:33:27.860Z,97.70
2022-11-25T02:35:59.590Z,102.30
2022-11-25T02:38:42.560Z,102.50
2022-11-25T02:41:16.414Z,97.70
2022-11-25T02:43:46.103Z,98.00
2022-11-25T02:46:22.446Z,99.00
2022-11-25T02:49:09.934Z,94.30
2022-11-25T02:51:41.137Z,94.80
2022-11-25T02:54:10.459Z,94.80
2022-11-25T02:56:40.122Z,96.10
2022-11-25T02:59:10.056Z,100.50
2022-11-25T03:01:38.913Z,113.10
2022-11-25T03:04:08.080Z,91.40
2022-11-25T03:06:36.615Z,90.90
2022-11-25T03:09:04.399Z,90.10
2022-11-25T03:11:51.292Z,96.30
2022-11-25T03:14:20.363Z,88.40
2022-11-25T03:16:48.171Z,96.00
2022-11-25T03:19:16.068Z,97.60
2022-11-25T03:21:46.117Z,91.70
2022-11-25T03:24:14.023Z,102.30
2022-11-25T03:26:41.757Z,108.70
2022-11-25T03:29:09.586Z,93.50
2022-11-25T03:31:40.760Z,90.40
2022-11-25T03:34:10.576Z,86.00
2022-11-25T03:36:39.384Z,90.00
2022-11-25T03:39:07.319Z,99.40
2022-11-25T03:41:35.556Z,98.50
2022-11-25T03:44:03.464Z,105.30
2022-11-25T03:46:31.274Z,101.70
2022-11-25T03:48:59.509Z,87.30
2022-11-25T03:51:28.720Z,81.40
2022-11-25T03:53:56.649Z,78.20
2022-11-25T03:56:24.679Z,91.00
2022-11-25T03:58:52.698Z,99.30
2022-11-25T04:01:20.778Z,78.70
2022-11-25T04:03:48.643Z,91.60
2022-11-25T04:06:20.167Z,89.00
2022-11-25T04:08:48.781Z,114.10
2022-11-25T04:11:17.332Z,92.80
2022-11-25T04:13:46.356Z,85.70
2022-11-25T04:16:25.044Z,88.50
2022-11-25T04:18:53.313Z,103.20
2022-11-25T04:21:21.307Z,95.10
2022-11-25T04:23:49.204Z,97.20
2022-11-25T04:26:17.092Z,99.80
2022-11-25T04:28:45.848Z,91.40
2022-11-25T04:31:14.185Z,100.90
2022-11-25T04:33:45.961Z,91.70
2022-11-25T04:36:16.419Z,94.10
2022-11-25T04:38:46.547Z,91.00
2022-11-25T04:41:14.638Z,102.90
2022-11-25T04:43:43.709Z,97.90
2022-11-25T04:46:19.422Z,86.60
2022-11-25T04:48:50.440Z,100.60
2022-11-25T04:51:18.474Z,100.30
2022-11-25T04:53:47.182Z,90.30
2022-11-25T04:56:18.907Z,84.10
2022-11-25T04:59:05.909Z,84.50
2022-11-25T05:01:33.959Z,93.50
2022-11-25T05:04:09.581Z,102.40
2022-11-25T05:06:37.737Z,89.90
2022-11-25T05:09:06.674Z,103.60
2022-11-25T05:11:36.732Z,93.10
2022-11-25T05:14:04.830Z,90.40
2022-11-25T05:16:33.728Z,90.50
2022-11-25T05:19:02.110Z,86.30
2022-11-25T05:21:30.791Z,83.20
2022-11-25T05:23:59.710Z,94.80
2022-11-25T05:26:29.427Z,94.60
2022-11-25T05:29:00.565Z,86.30
2022-11-25T05:31:30.488Z,88.70
2022-11-25T05:34:02.078Z,98.50
2022-11-25T05:36:32.385Z,104.60
2022-11-25T05:39:00.466Z,100.00
2022-11-25T05:41:47.796Z,98.70
2022-11-25T05:44:21.205Z,96.00
2022-11-25T05:46:51.263Z,102.70
2022-11-25T05:49:19.998Z,112.60
2022-11-25T05:51:49.942Z,92.40
2022-11-25T05:54:19.879Z,94.70
2022-11-25T05:56:48.053Z,92.70
2022-11-25T05:59:41.830Z,95.20
2022-11-25T06:02:14.949Z,91.10
2022-11-25T06:04:43.773Z,80.10
2022-11-25T06:07:11.902Z,84.20
2022-11-25T06:09:40.347Z,95.70
2022-11-25T06:12:08.256Z,92.80
2022-11-25T06:14:39.521Z,98.70
2022-11-25T06:17:07.784Z,96.90
2022-11-25T06:19:40.554Z,94.60
2022-11-25T06:22:08.880Z,107.80
2022-11-25T06:24:37.080Z,90.00
2022-11-25T06:27:08.155Z,79.10
2022-11-25T06:29:36.310Z,86.80
2022-11-25T06:32:04.484Z,82.40
2022-11-25T06:34:42.143Z,89.50
2022-11-25T06:37:16.615Z,80.90
2022-11-25T06:39:44.448Z,87.30
2022-11-25T06:42:12.321Z,79.80
2022-11-25T06:44:40.231Z,92.30
2022-11-25T06:47:08.466Z,89.50
2022-11-25T06:49:36.685Z,85.20
2022-11-25T06:52:04.671Z,98.20
2022-11-25T06:54:32.484Z,93.50
2022-11-25T06:57:00.438Z,79.00
2022-11-25T06:59:28.501Z,79.20
2022-11-25T07:01:56.753Z,86.60
2022-11-25T07:04:24.813Z,85.80
2022-11-25T07:06:52.917Z,83.60
2022-11-25T07:09:22.425Z,85.60
2022-11-25T07:11:50.440Z,85.70
2022-11-25T07:14:18.536Z,86.40
2022-11-25T07:16:47.176Z,97.70
2022-11-25T07:19:16.913Z,94.80
2022-11-25T07:21:46.112Z,90.70
2022-11-25T07:24:15.882Z,91.00
2022-11-25T07:26:45.178Z,92.70
2022-11-25T07:29:50.363Z,88.60
2022-11-25T07:32:10.553Z,85.70
2022-11-25T07:34:39.675Z,88.30
2022-11-25T07:37:09.041Z,93.50
2022-11-25T07:39:37.444Z,90.20
2022-11-25T07:42:06.001Z,84.50
2022-11-25T07:44:34.445Z,86.40
2022-11-25T07:47:13.679Z,84.70
2022-11-25T07:49:42.005Z,91.20
2022-11-25T07:52:10.804Z,92.40
2022-11-25T07:54:38.862Z,91.70
2022-11-25T07:57:06.808Z,87.90
2022-11-25T07:59:36.378Z,86.60
2022-11-25T08:02:04.633Z,90.10
2022-11-25T08:04:32.611Z,88.60
2022-11-25T08:07:00.570Z,88.80
2022-11-25T08:09:28.669Z,88.90
2022-11-25T08:11:56.671Z,89.60
2022-11-25T08:14:25.857Z,95.80
2022-11-25T08:16:53.810Z,92.00
2022-11-25T08:19:23.137Z,111.90
2022-11-25T08:21:54.785Z,115.00
2022-11-25T08:24:22.729Z,105.30
2022-11-25T08:26:51.641Z,98.80
2022-11-25T08:29:20.538Z,90.80
2022-11-25T08:31:48.478Z,85.80
2022-11-25T08:34:20.306Z,91.30
2022-11-25T08:36:49.511Z,84.30
2022-11-25T08:42:07.611Z,80.90
2022-11-25T08:44:36.400Z,80.60
2022-11-25T08:47:04.451Z,78.40
2022-11-25T08:49:36.198Z,74.30
2022-11-25T08:52:39.125Z,80.70
2022-11-25T08:55:08.596Z,89.40
2022-11-25T08:57:36.637Z,80.10
2022-11-25T09:00:06.385Z,72.30
2022-11-25T09:02:34.817Z,71.70
2022-11-25T09:05:03.201Z,73.40
2022-11-25T09:07:31.463Z,75.50
2022-11-25T09:09:59.566Z,73.70
2022-11-25T09:12:27.539Z,71.70
2022-11-25T09:14:55.479Z,72.10
2022-11-25T09:17:23.874Z,75.60
2022-11-25T09:19:52.483Z,76.10
2022-11-25T09:22:20.995Z,70.40
2022-11-25T09:24:49.475Z,74.10
2022-11-25T09:27:18.463Z,68.00
2022-11-25T09:29:46.608Z,77.90
2022-11-25T09:32:15.279Z,79.50
2022-11-25T09:34:48.619Z,77.50
2022-11-25T09:37:17.324Z,78.50
2022-11-25T09:51:32.725Z,84.00
2022-11-25T09:54:26.664Z,81.00
2022-11-25T09:57:13.988Z,83.50
2022-11-25T09:59:52.662Z,82.50
2022-11-25T10:02:29.400Z,87.00
2022-11-25T10:05:21.786Z,79.30
2022-11-25T10:07:53.984Z,83.40
2022-11-25T10:10:41.930Z,78.80
2022-11-25T10:13:32.257Z,81.70
2022-11-25T10:16:04.217Z,88.50
2022-11-25T10:18:39.980Z,78.60
2022-11-25T10:21:11.674Z,78.60
2022-11-25T10:23:40.234Z,88.80
2022-11-25T10:26:16.944Z,80.50
2022-11-25T10:29:06.251Z,84.30
2022-11-25T10:31:37.670Z,78.00
2022-11-25T10:40:01.765Z,80.00
2022-11-25T10:42:30.453Z,86.20
2022-11-25T10:44:58.708Z,86.60
2022-11-25T10:47:33.182Z,82.50
2022-11-25T10:50:20.213Z,94.60
2022-11-25T10:53:00.290Z,91.00
2022-11-25T10:55:36.141Z,88.70
2022-11-25T10:58:28.750Z,88.60
2022-11-25T11:01:19.936Z,89.30
2022-11-25T11:03:55.587Z,91.90
2022-11-25T11:06:31.614Z,94.00
2022-11-25T11:09:00.513Z,95.20
2022-11-25T11:11:29.538Z,89.90
2022-11-25T11:14:12.569Z,97.00
2022-11-25T11:16:45.747Z,99.60
2022-11-25T11:19:30.155Z,100.70
2022-11-25T11:22:16.337Z,99.90
2022-11-25T11:24:44.415Z,103.30
2022-11-25T11:27:21.265Z,108.20
2022-11-25T11:30:09.176Z,102.70
2022-11-25T11:32:39.679Z,99.00
2022-11-25T11:35:19.321Z,93.90
2022-11-25T11:37:54.369Z,99.90
2022-11-25T11:40:46.620Z,101.60
2022-11-25T11:43:24.023Z,106.20
2022-11-25T11:46:26.108Z,118.40
2022-11-25T11:49:30.688Z,117.90
2022-11-25T11:52:45.192Z,138.80
2022-11-25T11:55:41.568Z,151.70
2022-11-25T11:58:46.999Z,149.40
2022-11-25T12:01:26.847Z,152.00
2022-11-25T12:04:11.746Z,168.90
2022-11-25T12:06:43.247Z,186.90
2022-11-25T12:09:20.118Z,156.30
2022-11-25T12:12:04.220Z,159.70
2022-11-25T12:14:44.324Z,165.60
2022-11-25T12:17:26.010Z,166.80
2022-11-25T12:20:24.308Z,158.90
2022-11-25T12:23:02.266Z,156.20
2022-11-25T12:25:36.208Z,163.10
2022-11-25T12:28:20.518Z,163.90
2022-11-25T12:31:17.366Z,163.20
2022-11-25T12:33:52.450Z,159.50
2022-11-25T12:36:47.880Z,174.70
2022-11-25T12:39:37.430Z,156.70
2022-11-25T12:42:14.527Z,159.90
2022-11-25T12:44:58.564Z,144.20
2022-11-25T12:47:27.592Z,155.30
2022-11-25T12:49:57.149Z,155.70
2022-11-25T12:53:02.186Z,161.30
2022-11-25T12:55:32.131Z,153.50
2022-11-25T12:58:29.245Z,140.20
2022-11-25T13:01:22.135Z,120.10
2022-11-25T13:04:01.996Z,123.90
2022-11-25T13:06:49.584Z,118.50
2022-11-25T13:09:51.685Z,108.00
2022-11-25T13:12:28.267Z,113.90
2022-11-25T13:15:19.592Z,112.20
2022-11-25T13:17:51.879Z,99.40
2022-11-25T13:20:29.796Z,95.80
2022-11-25T13:23:08.127Z,98.30
2022-11-25T13:25:40.467Z,106.40
2022-11-25T13:28:34.380Z,114.50
2022-11-25T13:31:32.064Z,107.90
2022-11-25T13:34:19.664Z,124.30
2022-11-25T13:37:00.209Z,123.90
2022-11-25T13:39:31.213Z,119.10
2022-11-25T13:42:08.941Z,121.30
2022-11-25T13:44:52.883Z,119.80
2022-11-25T13:47:35.251Z,147.80
2022-11-25T13:50:36.823Z,145.40
2022-11-25T13:53:31.204Z,138.50
2022-11-25T13:56:26.868Z,130.50
2022-11-25T13:59:11.034Z,133.50
2022-11-25T14:01:41.264Z,135.30
2022-11-25T14:04:13.314Z,139.60
2022-11-25T14:07:14.450Z,132.80
2022-11-25T14:10:03.451Z,111.60
2022-11-25T14:13:03.155Z,107.80
2022-11-25T14:16:23.558Z,105.60
2022-11-25T14:19:49.619Z,86.00
2022-11-25T14:22:24.700Z,82.20
2022-11-25T14:25:01.895Z,92.00
2022-11-25T14:27:37.443Z,85.30
2022-11-25T14:30:10.736Z,86.20
2022-11-25T14:32:53.577Z,84.40
2022-11-25T14:35:29.134Z,94.70
2022-11-25T14:38:04.555Z,97.30
2022-11-25T14:41:17.168Z,93.40
2022-11-25T14:43:52.487Z,97.70
2022-11-25T14:46:26.007Z,99.10
2022-11-25T14:49:07.641Z,100.70
2022-11-25T14:51:46.965Z,99.60
2022-11-25T14:54:15.924Z,96.60
2022-11-25T14:56:45.470Z,112.60
2022-11-25T14:59:15.441Z,116.90
2022-11-25T15:01:55.021Z,120.10
2022-11-25T15:04:25.711Z,124.40
2022-11-25T15:07:02.763Z,132.90
2022-11-25T15:09:42.639Z,137.40
2022-11-25T15:12:19.064Z,138.30
2022-11-25T15:14:53.771Z,122.30
2022-11-25T15:17:32.079Z,123.40
2022-11-25T15:20:15.354Z,136.90
2022-11-25T15:22:50.346Z,146.20
2022-11-25T15:25:19.305Z,137.40
2022-11-25T15:27:53.873Z,148.00
2022-11-25T15:30:29.541Z,141.90
2022-11-25T15:32:58.806Z,134.50
2022-11-25T15:35:28.191Z,134.60
2022-11-25T15:37:57.812Z,151.50
2022-11-25T15:40:44.131Z,157.90
2022-11-25T15:43:25.139Z,176.70
2022-11-25T15:46:01.763Z,151.30
2022-11-25T15:48:51.941Z,132.40
2022-11-25T15:51:32.715Z,163.00
2022-11-25T15:54:19.259Z,155.00
2022-11-25T15:56:51.476Z,166.70
2022-11-25T15:59:40.764Z,152.30
2022-11-25T16:02:42.592Z,148.50
2022-11-25T16:05:17.603Z,129.60
2022-11-25T16:07:52.672Z,118.00
2022-11-25T16:10:31.893Z,132.30
2022-11-25T16:13:31.913Z,132.80
2022-11-25T16:16:23.760Z,124.40
2022-11-25T16:19:02.764Z,110.00
2022-11-25T16:21:38.998Z,127.60
2022-11-25T16:24:40.870Z,150.60
2022-11-25T16:27:24.949Z,119.90
2022-11-25T16:29:55.018Z,100.50
2022-11-25T16:32:24.350Z,120.90
2022-11-25T16:34:57.192Z,115.60
2022-11-25T16:37:32.624Z,104.80
2022-11-25T16:40:02.703Z,93.40
2022-11-25T16:42:31.350Z,101.00
2022-11-25T16:45:01.452Z,109.60
2022-11-25T16:47:30.661Z,121.40
2022-11-25T16:49:59.586Z,137.60
2022-11-25T16:52:28.936Z,132.30
2022-11-25T16:54:57.759Z,138.80
2022-11-25T16:57:29.945Z,131.70
2022-11-25T17:00:07.723Z,128.80
2022-11-25T17:02:36.584Z,140.10
2022-11-25T17:05:26.850Z,148.00
2022-11-25T17:07:58.822Z,145.40
2022-11-25T17:10:28.434Z,139.60
2022-11-25T17:13:03.652Z,145.90
2022-11-25T17:15:38.194Z,167.00
2022-11-25T17:18:09.414Z,173.20
2022-11-25T17:20:40.256Z,181.50
2022-11-25T17:23:17.582Z,168.20
2022-11-25T17:25:50.170Z,185.80
2022-11-25T17:28:21.589Z,175.40
2022-11-25T17:30:50.865Z,193.80
2022-11-25T17:33:26.813Z,186.40
2022-11-25T17:35:56.220Z,201.40
2022-11-25T17:38:27.570Z,178.90
2022-11-25T17:40:56.246Z,166.90
2022-11-25T17:43:30.370Z,168.20
2022-11-25T17:46:02.472Z,173.30
2022-11-25T17:48:31.786Z,169.20
2022-11-25T17:51:07.215Z,159.90
2022-11-25T17:53:38.887Z,150.10
2022-11-25T17:56:28.867Z,155.10
2022-11-25T17:59:04.746Z,160.90
2022-11-25T18:01:39.025Z,155.00
2022-11-25T18:04:16.489Z,149.60
2022-11-25T18:06:48.084Z,151.10
2022-11-25T18:09:17.469Z,182.20
2022-11-25T18:11:53.415Z,156.40
2022-11-25T18:14:26.509Z,163.10
2022-11-25T18:16:56.569Z,143.90
2022-11-25T18:19:26.080Z,144.40
2022-11-25T18:22:01.025Z,145.10
2022-11-25T18:24:33.560Z,177.60
2022-11-25T18:27:11.004Z,134.50
2022-11-25T18:29:42.220Z,146.60
2022-11-25T18:32:16.840Z,132.10
2022-11-25T18:34:50.792Z,133.50
2022-11-25T18:37:22.320Z,154.70
2022-11-25T18:39:57.979Z,140.20
2022-11-25T18:42:31.984Z,118.90
2022-11-25T18:47:04.715Z,137.20
2022-11-25T18:49:33.488Z,158.30
2022-11-25T18:52:02.295Z,143.50
2022-11-25T18:54:31.519Z,139.10
2022-11-25T18:57:02.128Z,143.80
2022-11-25T18:59:37.473Z,160.20
2022-11-25T19:02:22.109Z,144.10
2022-11-25T19:04:58.527Z,120.60
2022-11-25T19:07:30.159Z,132.50
2022-11-25T19:09:57.568Z,117.00
2022-11-25T19:12:27.025Z,120.70
2022-11-25T19:14:59.659Z,142.40
2022-11-25T19:17:34.063Z,143.90
2022-11-25T19:20:12.742Z,131.10
2022-11-25T19:22:41.813Z,139.10
2022-11-25T19:25:15.962Z,139.30
2022-11-25T19:27:51.896Z,152.20
2022-11-25T19:30:25.775Z,140.50
2022-11-25T19:32:57.079Z,136.10
2022-11-25T19:35:29.458Z,144.90
2022-11-25T19:37:57.421Z,150.20
2022-11-25T19:40:24.981Z,137.20
2022-11-25T19:42:52.371Z,131.00
2022-11-25T19:45:20.648Z,139.90
2022-11-25T19:47:55.387Z,149.20
2022-11-25T19:50:28.266Z,127.90
2022-11-25T19:52:55.906Z,147.10
2022-11-25T19:55:29.979Z,159.90
2022-11-25T19:57:58.555Z,154.60
2022-11-25T20:00:27.989Z,139.40
2022-11-25T20:02:56.928Z,129.40
2022-11-25T20:05:37.898Z,119.30
2022-11-25T20:08:08.147Z,137.30
2022-11-25T20:10:35.953Z,145.40
2022-11-25T20:13:06.566Z,138.60
2022-11-25T20:15:38.555Z,134.00
2022-11-25T20:32:31.275Z,119.40
2022-11-25T20:35:28.364Z,127.50
2022-11-25T20:37:57.382Z,131.50
2022-11-25T20:40:32.433Z,118.30
2022-11-25T20:43:01.128Z,135.00
2022-11-25T20:45:27.839Z,150.30
2022-11-25T20:47:55.185Z,137.80
2022-11-25T20:50:22.036Z,139.20
2022-11-25T20:52:51.976Z,140.00
2022-11-25T20:55:24.870Z,135.40
2022-11-25T20:57:52.290Z,129.50
2022-11-25T21:00:26.965Z,148.50
2022-11-25T21:02:56.953Z,118.50
2022-11-25T21:05:27.730Z,136.50
2022-11-25T21:07:55.477Z,117.10
2022-11-25T21:10:27.214Z,127.70
2022-11-25T21:12:55.946Z,131.70
2022-11-25T21:15:25.477Z,137.40
2022-11-25T21:17:52.854Z,132.80
2022-11-25T21:20:20.091Z,136.00
2022-11-25T21:22:49.545Z,142.40
2022-11-25T21:25:19.507Z,142.20
2022-11-25T21:27:48.299Z,123.80
2022-11-25T21:30:20.769Z,140.50
2022-11-25T21:32:48.022Z,144.10
2022-11-25T21:35:14.942Z,145.60
2022-11-25T21:37:43.810Z,153.40
2022-11-25T21:40:38.244Z,147.30
2022-11-25T21:43:12.909Z,155.70
2022-11-25T21:45:41.598Z,144.00
2022-11-25T21:52:27.258Z,145.50
2022-11-25T22:00:00.102Z,142.80
2022-11-25T22:07:06.275Z,148.90
2022-11-25T22:09:32.770Z,145.80
2022-11-25T22:12:00.032Z,137.80
2022-11-25T22:14:34.038Z,197.70
2022-11-25T22:17:05.551Z,168.20
2022-11-25T22:19:32.871Z,158.00
2022-11-25T22:21:59.281Z,139.40
2022-11-25T22:24:25.653Z,125.80
2022-11-25T22:26:57.842Z,129.40
2022-11-25T22:29:32.853Z,168.00
2022-11-25T22:32:00.487Z,140.10
2022-11-25T22:34:27.989Z,153.10
2022-11-25T22:36:54.470Z,152.60
2022-11-25T22:39:25.441Z,174.20
2022-11-25T22:42:01.917Z,129.20
2022-11-25T22:44:42.179Z,136.20
2022-11-25T22:47:28.481Z,152.60
2022-11-25T22:49:55.050Z,161.90
2022-11-25T22:52:27.044Z,143.30
2022-11-25T22:54:54.640Z,141.60
2022-11-25T22:57:21.956Z,133.80
2022-11-25T22:59:49.188Z,132.00
2022-11-25T23:02:20.004Z,140.70
2022-11-25T23:04:51.934Z,119.00
2022-11-25T23:07:20.601Z,155.40
2022-11-25T23:09:47.453Z,146.00
2022-11-25T23:12:14.935Z,147.80
2022-11-25T23:14:42.203Z,126.80
2022-11-25T23:17:24.822Z,143.20
2022-11-25T23:19:51.609Z,154.40
2022-11-25T23:22:18.890Z,153.10
2022-11-25T23:24:47.540Z,156.50
2022-11-25T23:27:15.651Z,156.70
2022-11-25T23:29:42.160Z,176.30
2022-11-25T23:32:18.280Z,175.20
2022-11-25T23:34:45.047Z,161.90
2022-11-25T23:37:13.009Z,164.00
2022-11-25T23:39:39.783Z,160.20
2022-11-25T23:42:16.471Z,195.90
2022-11-25T23:44:43.532Z,175.80
2022-11-25T23:47:16.753Z,172.20
2022-11-25T23:49:45.847Z,182.90
2022-11-25T23:52:23.517Z,178.90
2022-11-25T23:54:51.820Z,158.60
2022-11-25T23:57:25.444Z,150.10
2022-11-25T23:59:52.568Z,134.30
